sensor_id;sensor_type;location;lat;lon;timestamp;temperature;humidity
24664;DHT22;12791;50.992;13.788;2023-03-01T00:02:26;-0.70;99.90
24664;DHT22;12791;50.992;13.788;2023-03-01T00:04:53;-0.90;99.90
24664;DHT22;12791;50.992;13.788;2023-03-01T00:07:19;-1.00;99.90
24664;DHT22;12791;50.992;13.788;2023-03-01T00:09:46;-1.00;99.90
24664;DHT22;12791;50.992;13.788;2023-03-01T00:12:13;-0.90;99.90
24664;DHT22;12791;50.992;13.788;2023-03-01T00:14:41;-1.10;99.90
24664;DHT22;12791;50.992;13.788;2023-03-01T00:17:07;-1.10;99.90
24664;DHT22;12791;50.992;13.788;2023-03-01T00:19:34;-1.00;99.90
24664;DHT22;12791;50.992;13.788;2023-03-01T00:22:01;-1.30;99.90
24664;DHT22;12791;50.992;13.788;2023-03-01T00:24:27;-1.20;99.90
24664;DHT22;12791;50.992;13.788;2023-03-01T00:26:55;-1.10;99.90
24664;DHT22;12791;50.992;13.788;2023-03-01T00:29:22;-1.00;99.90
24664;DHT22;12791;50.992;13.788;2023-03-01T00:31:50;-1.20;99.90
24664;DHT22;12791;50.992;13.788;2023-03-01T00:34:17;-1.20;99.90
24664;DHT22;12791;50.992;13.788;2023-03-01T00:36:43;-1.20;99.90
24664;DHT22;12791;50.992;13.788;2023-03-01T00:39:12;-1.10;99.90
24664;DHT22;12791;50.992;13.788;2023-03-01T00:41:39;-1.20;99.90
24664;DHT22;12791;50.992;13.788;2023-03-01T00:44:06;-1.10;99.90
24664;DHT22;12791;50.992;13.788;2023-03-01T00:46:33;-1.10;99.90
24664;DHT22;12791;50.992;13.788;2023-03-01T00:49:01;-1.00;99.90
24664;DHT22;12791;50.992;13.788;2023-03-01T00:51:30;-1.30;99.90
24664;DHT22;12791;50.992;13.788;2023-03-01T00:53:58;-1.20;99.90
24664;DHT22;12791;50.992;13.788;2023-03-01T00:56:25;-1.20;99.90
24664;DHT22;12791;50.992;13.788;2023-03-01T00:58:52;-0.90;99.90
24664;DHT22;12791;50.992;13.788;2023-03-01T01:01:20;-1.10;99.90
24664;DHT22;12791;50.992;13.788;2023-03-01T01:03:49;-1.30;99.90
24664;DHT22;12791;50.992;13.788;2023-03-01T01:06:19;-1.20;99.90
24664;DHT22;12791;50.992;13.788;2023-03-01T01:08:47;-1.00;99.90
24664;DHT22;12791;50.992;13.788;2023-03-01T01:11:14;-1.10;99.90
24664;DHT22;12791;50.992;13.788;2023-03-01T01:13:41;-1.20;99.90
24664;DHT22;12791;50.992;13.788;2023-03-01T01:16:08;-1.00;99.90
24664;DHT22;12791;50.992;13.788;2023-03-01T01:18:35;-1.10;99.90
24664;DHT22;12791;50.992;13.788;2023-03-01T01:21:06;-1.10;99.90
24664;DHT22;12791;50.992;13.788;2023-03-01T01:23:35;-1.40;99.90
24664;DHT22;12791;50.992;13.788;2023-03-01T01:26:06;-1.30;99.90
24664;DHT22;12791;50.992;13.788;2023-03-01T01:28:34;-1.30;99.90
24664;DHT22;12791;50.992;13.788;2023-03-01T01:31:00;-1.30;99.90
24664;DHT22;12791;50.992;13.788;2023-03-01T01:33:27;-1.30;99.90
24664;DHT22;12791;50.992;13.788;2023-03-01T01:35:54;-1.20;99.90
24664;DHT22;12791;50.992;13.788;2023-03-01T01:38:21;-1.30;99.90
24664;DHT22;12791;50.992;13.788;2023-03-01T01:40:50;-1.20;99.90
24664;DHT22;12791;50.992;13.788;2023-03-01T01:43:22;-1.60;99.90
24664;DHT22;12791;50.992;13.788;2023-03-01T01:45:49;-1.10;99.90
24664;DHT22;12791;50.992;13.788;2023-03-01T01:48:18;-1.40;99.90
24664;DHT22;12791;50.992;13.788;2023-03-01T01:50:50;-1.50;99.90
24664;DHT22;12791;50.992;13.788;2023-03-01T01:53:20;-1.40;99.90
24664;DHT22;12791;50.992;13.788;2023-03-01T01:55:52;-1.30;99.90
24664;DHT22;12791;50.992;13.788;2023-03-01T01:58:21;-1.60;99.90
24664;DHT22;12791;50.992;13.788;2023-03-01T02:00:48;-1.70;99.90
24664;DHT22;12791;50.992;13.788;2023-03-01T02:03:18;-1.70;99.90
24664;DHT22;12791;50.992;13.788;2023-03-01T02:05:49;-1.70;99.90
24664;DHT22;12791;50.992;13.788;2023-03-01T02:08:19;-1.60;99.90
24664;DHT22;12791;50.992;13.788;2023-03-01T02:10:48;-1.80;99.90
24664;DHT22;12791;50.992;13.788;2023-03-01T02:13:15;-1.70;99.90
24664;DHT22;12791;50.992;13.788;2023-03-01T02:15:42;-1.90;99.90
24664;DHT22;12791;50.992;13.788;2023-03-01T02:18:12;-1.90;99.90
24664;DHT22;12791;50.992;13.788;2023-03-01T02:20:47;-1.70;99.90
24664;DHT22;12791;50.992;13.788;2023-03-01T02:23:15;-1.90;99.90
24664;DHT22;12791;50.992;13.788;2023-03-01T02:25:47;-1.90;99.90
24664;DHT22;12791;50.992;13.788;2023-03-01T02:28:25;-2.10;99.90
24664;DHT22;12791;50.992;13.788;2023-03-01T02:30:53;-2.10;99.90
24664;DHT22;12791;50.992;13.788;2023-03-01T02:33:39;-2.10;99.90
24664;DHT22;12791;50.992;13.788;2023-03-01T02:36:09;-2.10;99.90
24664;DHT22;12791;50.992;13.788;2023-03-01T02:38:36;-2.10;99.90
24664;DHT22;12791;50.992;13.788;2023-03-01T02:41:04;-2.00;99.90
24664;DHT22;12791;50.992;13.788;2023-03-01T02:43:34;-1.90;99.90
24664;DHT22;12791;50.992;13.788;2023-03-01T02:46:04;-1.80;99.90
24664;DHT22;12791;50.992;13.788;2023-03-01T02:48:40;-1.90;99.90
24664;DHT22;12791;50.992;13.788;2023-03-01T02:51:16;-2.10;99.90
24664;DHT22;12791;50.992;13.788;2023-03-01T02:53:52;-2.00;99.90
24664;DHT22;12791;50.992;13.788;2023-03-01T02:56:21;-2.10;99.90
24664;DHT22;12791;50.992;13.788;2023-03-01T02:58:49;-2.20;99.90
24664;DHT22;12791;50.992;13.788;2023-03-01T03:01:17;-2.00;99.90
24664;DHT22;12791;50.992;13.788;2023-03-01T03:03:44;-2.00;99.90
24664;DHT22;12791;50.992;13.788;2023-03-01T03:06:11;-2.00;99.90
24664;DHT22;12791;50.992;13.788;2023-03-01T03:08:37;-1.90;99.90
24664;DHT22;12791;50.992;13.788;2023-03-01T03:11:04;-1.80;99.90
24664;DHT22;12791;50.992;13.788;2023-03-01T03:13:31;-1.90;99.90
24664;DHT22;12791;50.992;13.788;2023-03-01T03:15:59;-1.90;99.90
24664;DHT22;12791;50.992;13.788;2023-03-01T03:18:25;-2.00;99.90
24664;DHT22;12791;50.992;13.788;2023-03-01T03:20:52;-2.00;99.90
24664;DHT22;12791;50.992;13.788;2023-03-01T03:23:20;-2.10;99.90
24664;DHT22;12791;50.992;13.788;2023-03-01T03:25:48;-2.10;99.90
24664;DHT22;12791;50.992;13.788;2023-03-01T03:28:15;-2.20;99.90
24664;DHT22;12791;50.992;13.788;2023-03-01T03:30:42;-2.00;99.90
24664;DHT22;12791;50.992;13.788;2023-03-01T03:33:11;-2.60;99.90
24664;DHT22;12791;50.992;13.788;2023-03-01T03:35:40;-2.20;99.90
24664;DHT22;12791;50.992;13.788;2023-03-01T03:38:09;-2.30;99.90
24664;DHT22;12791;50.992;13.788;2023-03-01T03:40:43;-2.10;99.90
24664;DHT22;12791;50.992;13.788;2023-03-01T03:43:12;-2.30;99.90
24664;DHT22;12791;50.992;13.788;2023-03-01T03:45:39;-2.30;99.90
24664;DHT22;12791;50.992;13.788;2023-03-01T03:48:08;-2.20;99.90
24664;DHT22;12791;50.992;13.788;2023-03-01T03:50:37;-2.20;99.90
24664;DHT22;12791;50.992;13.788;2023-03-01T03:53:07;-2.30;99.90
24664;DHT22;12791;50.992;13.788;2023-03-01T03:55:34;-2.30;99.90
24664;DHT22;12791;50.992;13.788;2023-03-01T03:58:05;-2.40;99.90
24664;DHT22;12791;50.992;13.788;2023-03-01T04:00:33;-2.40;99.90
24664;DHT22;12791;50.992;13.788;2023-03-01T04:03:00;-2.30;99.90
24664;DHT22;12791;50.992;13.788;2023-03-01T04:05:27;-2.30;99.90
24664;DHT22;12791;50.992;13.788;2023-03-01T04:07:55;-2.40;99.90
24664;DHT22;12791;50.992;13.788;2023-03-01T04:10:33;-2.40;99.90
24664;DHT22;12791;50.992;13.788;2023-03-01T04:13:00;-2.50;99.90
24664;DHT22;12791;50.992;13.788;2023-03-01T04:15:27;-2.50;99.90
24664;DHT22;12791;50.992;13.788;2023-03-01T04:17:54;-2.40;99.90
24664;DHT22;12791;50.992;13.788;2023-03-01T04:20:23;-2.60;99.90
24664;DHT22;12791;50.992;13.788;2023-03-01T04:22:52;-2.60;99.90
24664;DHT22;12791;50.992;13.788;2023-03-01T04:25:20;-2.30;99.90
24664;DHT22;12791;50.992;13.788;2023-03-01T04:27:46;-2.50;99.90
24664;DHT22;12791;50.992;13.788;2023-03-01T04:30:13;-2.70;99.90
24664;DHT22;12791;50.992;13.788;2023-03-01T04:32:40;-2.50;99.90
24664;DHT22;12791;50.992;13.788;2023-03-01T04:35:08;-2.60;99.90
24664;DHT22;12791;50.992;13.788;2023-03-01T04:37:35;-2.70;99.90
24664;DHT22;12791;50.992;13.788;2023-03-01T04:40:03;-2.50;99.90
24664;DHT22;12791;50.992;13.788;2023-03-01T04:42:39;-2.70;99.90
24664;DHT22;12791;50.992;13.788;2023-03-01T04:45:06;-2.50;99.90
24664;DHT22;12791;50.992;13.788;2023-03-01T04:47:38;-2.60;99.90
24664;DHT22;12791;50.992;13.788;2023-03-01T04:50:06;-2.70;99.90
24664;DHT22;12791;50.992;13.788;2023-03-01T04:52:33;-2.80;99.90
24664;DHT22;12791;50.992;13.788;2023-03-01T04:55:00;-2.70;99.90
24664;DHT22;12791;50.992;13.788;2023-03-01T04:57:27;-2.60;99.90
24664;DHT22;12791;50.992;13.788;2023-03-01T04:59:55;-2.80;99.90
24664;DHT22;12791;50.992;13.788;2023-03-01T05:02:22;-2.60;99.90
24664;DHT22;12791;50.992;13.788;2023-03-01T05:04:48;-2.70;99.90
24664;DHT22;12791;50.992;13.788;2023-03-01T05:07:15;-2.70;99.90
24664;DHT22;12791;50.992;13.788;2023-03-01T05:09:44;-2.80;99.90
24664;DHT22;12791;50.992;13.788;2023-03-01T05:12:11;-3.20;99.90
24664;DHT22;12791;50.992;13.788;2023-03-01T05:14:37;-3.00;99.90
24664;DHT22;12791;50.992;13.788;2023-03-01T05:17:06;-3.10;99.90
24664;DHT22;12791;50.992;13.788;2023-03-01T05:19:33;-2.90;99.90
24664;DHT22;12791;50.992;13.788;2023-03-01T05:22:00;-3.00;99.90
24664;DHT22;12791;50.992;13.788;2023-03-01T05:24:31;-2.90;99.90
24664;DHT22;12791;50.992;13.788;2023-03-01T05:26:58;-3.30;99.90
24664;DHT22;12791;50.992;13.788;2023-03-01T05:29:26;-2.90;99.90
24664;DHT22;12791;50.992;13.788;2023-03-01T05:31:55;-2.60;99.90
24664;DHT22;12791;50.992;13.788;2023-03-01T05:34:25;-2.70;99.90
24664;DHT22;12791;50.992;13.788;2023-03-01T05:36:52;-2.70;99.90
24664;DHT22;12791;50.992;13.788;2023-03-01T05:39:20;-2.80;99.90
24664;DHT22;12791;50.992;13.788;2023-03-01T05:41:47;-2.80;99.90
24664;DHT22;12791;50.992;13.788;2023-03-01T05:44:14;-2.80;99.90
24664;DHT22;12791;50.992;13.788;2023-03-01T05:46:41;-2.60;99.90
24664;DHT22;12791;50.992;13.788;2023-03-01T05:49:08;-2.60;99.90
24664;DHT22;12791;50.992;13.788;2023-03-01T05:51:36;-3.20;99.90
24664;DHT22;12791;50.992;13.788;2023-03-01T05:54:02;-2.80;99.90
24664;DHT22;12791;50.992;13.788;2023-03-01T05:56:32;-2.70;99.90
24664;DHT22;12791;50.992;13.788;2023-03-01T05:58:59;-2.80;99.90
24664;DHT22;12791;50.992;13.788;2023-03-01T06:01:26;-2.70;99.90
24664;DHT22;12791;50.992;13.788;2023-03-01T06:03:53;-2.70;99.90
24664;DHT22;12791;50.992;13.788;2023-03-01T06:06:19;-2.90;99.90
24664;DHT22;12791;50.992;13.788;2023-03-01T06:08:47;-3.10;99.90
24664;DHT22;12791;50.992;13.788;2023-03-01T06:11:14;-2.80;99.90
24664;DHT22;12791;50.992;13.788;2023-03-01T06:13:41;-2.90;99.90
24664;DHT22;12791;50.992;13.788;2023-03-01T06:16:08;-2.90;99.90
24664;DHT22;12791;50.992;13.788;2023-03-01T06:18:35;-2.80;99.90
24664;DHT22;12791;50.992;13.788;2023-03-01T06:21:02;-2.90;99.90
24664;DHT22;12791;50.992;13.788;2023-03-01T06:23:29;-2.90;99.90
24664;DHT22;12791;50.992;13.788;2023-03-01T06:25:57;-2.80;99.90
24664;DHT22;12791;50.992;13.788;2023-03-01T06:28:24;-2.80;99.90
24664;DHT22;12791;50.992;13.788;2023-03-01T06:30:51;-3.10;99.90
24664;DHT22;12791;50.992;13.788;2023-03-01T06:33:18;-2.70;99.90
24664;DHT22;12791;50.992;13.788;2023-03-01T06:35:45;-2.80;99.90
24664;DHT22;12791;50.992;13.788;2023-03-01T06:38:12;-2.70;99.90
24664;DHT22;12791;50.992;13.788;2023-03-01T06:40:40;-2.70;99.90
24664;DHT22;12791;50.992;13.788;2023-03-01T06:43:08;-2.60;99.90
24664;DHT22;12791;50.992;13.788;2023-03-01T06:45:36;-2.50;99.90
24664;DHT22;12791;50.992;13.788;2023-03-01T06:48:04;-2.70;99.90
24664;DHT22;12791;50.992;13.788;2023-03-01T06:50:32;-2.40;99.90
24664;DHT22;12791;50.992;13.788;2023-03-01T06:52:58;-2.60;99.90
24664;DHT22;12791;50.992;13.788;2023-03-01T06:55:25;-2.40;99.90
24664;DHT22;12791;50.992;13.788;2023-03-01T06:57:54;-2.20;99.90
24664;DHT22;12791;50.992;13.788;2023-03-01T07:00:24;-2.40;99.90
24664;DHT22;12791;50.992;13.788;2023-03-01T07:02:51;-2.20;99.90
24664;DHT22;12791;50.992;13.788;2023-03-01T07:05:17;-2.30;99.90
24664;DHT22;12791;50.992;13.788;2023-03-01T07:07:44;-2.00;99.90
24664;DHT22;12791;50.992;13.788;2023-03-01T07:10:11;-2.40;99.90
24664;DHT22;12791;50.992;13.788;2023-03-01T07:12:38;-1.90;99.90
24664;DHT22;12791;50.992;13.788;2023-03-01T07:15:09;-1.80;99.90
24664;DHT22;12791;50.992;13.788;2023-03-01T07:17:37;-1.90;99.90
24664;DHT22;12791;50.992;13.788;2023-03-01T07:20:04;-2.00;99.90
24664;DHT22;12791;50.992;13.788;2023-03-01T07:22:31;-1.80;99.90
24664;DHT22;12791;50.992;13.788;2023-03-01T07:24:58;-1.50;99.90
24664;DHT22;12791;50.992;13.788;2023-03-01T07:27:24;-1.60;99.90
24664;DHT22;12791;50.992;13.788;2023-03-01T07:29:51;-1.50;99.90
24664;DHT22;12791;50.992;13.788;2023-03-01T07:32:17;-1.50;99.90
24664;DHT22;12791;50.992;13.788;2023-03-01T07:34:45;-1.60;99.90
24664;DHT22;12791;50.992;13.788;2023-03-01T07:37:12;-1.50;99.90
24664;DHT22;12791;50.992;13.788;2023-03-01T07:39:38;-1.40;99.90
24664;DHT22;12791;50.992;13.788;2023-03-01T07:42:05;-1.10;99.90
24664;DHT22;12791;50.992;13.788;2023-03-01T07:44:32;-1.40;99.90
24664;DHT22;12791;50.992;13.788;2023-03-01T07:46:58;-1.30;99.90
24664;DHT22;12791;50.992;13.788;2023-03-01T07:49:25;-1.20;99.90
24664;DHT22;12791;50.992;13.788;2023-03-01T07:51:54;-1.20;99.90
24664;DHT22;12791;50.992;13.788;2023-03-01T07:54:21;-1.20;99.90
24664;DHT22;12791;50.992;13.788;2023-03-01T07:56:48;-1.00;99.90
24664;DHT22;12791;50.992;13.788;2023-03-01T07:59:15;-1.00;99.90
24664;DHT22;12791;50.992;13.788;2023-03-01T08:01:41;-0.70;99.90
24664;DHT22;12791;50.992;13.788;2023-03-01T08:04:08;-0.90;99.90
24664;DHT22;12791;50.992;13.788;2023-03-01T08:06:35;-0.90;99.90
24664;DHT22;12791;50.992;13.788;2023-03-01T08:09:04;-0.60;99.90
24664;DHT22;12791;50.992;13.788;2023-03-01T08:11:30;-0.80;99.90
24664;DHT22;12791;50.992;13.788;2023-03-01T08:13:57;-0.70;99.90
24664;DHT22;12791;50.992;13.788;2023-03-01T08:16:23;-0.50;99.90
24664;DHT22;12791;50.992;13.788;2023-03-01T08:18:50;-0.40;99.90
24664;DHT22;12791;50.992;13.788;2023-03-01T08:21:17;-0.60;99.90
24664;DHT22;12791;50.992;13.788;2023-03-01T08:23:44;-0.40;99.90
24664;DHT22;12791;50.992;13.788;2023-03-01T08:26:14;-0.50;99.90
24664;DHT22;12791;50.992;13.788;2023-03-01T08:28:41;-0.50;99.90
24664;DHT22;12791;50.992;13.788;2023-03-01T08:31:15;-0.30;99.90
24664;DHT22;12791;50.992;13.788;2023-03-01T08:33:42;-0.60;99.90
24664;DHT22;12791;50.992;13.788;2023-03-01T08:36:09;-0.40;99.90
24664;DHT22;12791;50.992;13.788;2023-03-01T08:38:35;-0.30;99.90
24664;DHT22;12791;50.992;13.788;2023-03-01T08:41:03;-0.10;99.90
24664;DHT22;12791;50.992;13.788;2023-03-01T08:43:31;-0.30;99.90
24664;DHT22;12791;50.992;13.788;2023-03-01T08:45:57;-0.20;99.90
24664;DHT22;12791;50.992;13.788;2023-03-01T08:48:24;-0.60;99.90
24664;DHT22;12791;50.992;13.788;2023-03-01T08:50:51;-0.30;99.90
24664;DHT22;12791;50.992;13.788;2023-03-01T08:53:18;-0.20;99.90
24664;DHT22;12791;50.992;13.788;2023-03-01T08:55:44;0.10;99.90
24664;DHT22;12791;50.992;13.788;2023-03-01T08:58:11;-0.10;99.90
24664;DHT22;12791;50.992;13.788;2023-03-01T09:00:39;0.30;99.90
24664;DHT22;12791;50.992;13.788;2023-03-01T09:03:06;0.30;99.90
24664;DHT22;12791;50.992;13.788;2023-03-01T09:05:33;0.10;99.90
24664;DHT22;12791;50.992;13.788;2023-03-01T09:08:00;0.00;99.90
24664;DHT22;12791;50.992;13.788;2023-03-01T09:10:26;0.30;99.90
24664;DHT22;12791;50.992;13.788;2023-03-01T09:12:53;-0.10;99.90
24664;DHT22;12791;50.992;13.788;2023-03-01T09:15:19;0.30;99.90
24664;DHT22;12791;50.992;13.788;2023-03-01T09:17:47;0.40;99.90
24664;DHT22;12791;50.992;13.788;2023-03-01T09:20:14;0.60;99.90
24664;DHT22;12791;50.992;13.788;2023-03-01T09:22:40;0.70;99.90
24664;DHT22;12791;50.992;13.788;2023-03-01T09:25:07;0.40;99.90
24664;DHT22;12791;50.992;13.788;2023-03-01T09:27:35;0.70;99.90
24664;DHT22;12791;50.992;13.788;2023-03-01T09:30:01;1.00;99.90
24664;DHT22;12791;50.992;13.788;2023-03-01T09:32:30;0.80;99.90
24664;DHT22;12791;50.992;13.788;2023-03-01T09:34:58;0.90;99.90
24664;DHT22;12791;50.992;13.788;2023-03-01T09:37:30;0.50;99.90
24664;DHT22;12791;50.992;13.788;2023-03-01T09:39:57;1.10;99.90
24664;DHT22;12791;50.992;13.788;2023-03-01T09:42:24;1.00;99.90
24664;DHT22;12791;50.992;13.788;2023-03-01T09:44:54;1.20;99.90
24664;DHT22;12791;50.992;13.788;2023-03-01T09:47:26;1.20;99.90
24664;DHT22;12791;50.992;13.788;2023-03-01T09:50:03;1.10;99.90
24664;DHT22;12791;50.992;13.788;2023-03-01T09:52:35;1.30;99.90
24664;DHT22;12791;50.992;13.788;2023-03-01T09:55:09;1.20;99.90
24664;DHT22;12791;50.992;13.788;2023-03-01T09:57:41;1.20;99.90
24664;DHT22;12791;50.992;13.788;2023-03-01T10:00:19;1.40;99.90
24664;DHT22;12791;50.992;13.788;2023-03-01T10:02:51;1.10;99.90
24664;DHT22;12791;50.992;13.788;2023-03-01T10:05:34;1.30;99.90
24664;DHT22;12791;50.992;13.788;2023-03-01T10:08:23;1.30;99.90
24664;DHT22;12791;50.992;13.788;2023-03-01T10:10:51;1.40;99.90
24664;DHT22;12791;50.992;13.788;2023-03-01T10:13:21;1.40;99.90
24664;DHT22;12791;50.992;13.788;2023-03-01T10:15:54;1.40;99.90
24664;DHT22;12791;50.992;13.788;2023-03-01T10:18:25;1.50;99.90
24664;DHT22;12791;50.992;13.788;2023-03-01T10:20:55;1.50;99.90
24664;DHT22;12791;50.992;13.788;2023-03-01T10:23:23;1.60;99.90
24664;DHT22;12791;50.992;13.788;2023-03-01T10:26:01;1.80;99.90
24664;DHT22;12791;50.992;13.788;2023-03-01T10:28:42;1.90;99.90
24664;DHT22;12791;50.992;13.788;2023-03-01T10:31:12;1.80;99.90
24664;DHT22;12791;50.992;13.788;2023-03-01T10:33:41;1.70;99.90
24664;DHT22;12791;50.992;13.788;2023-03-01T10:36:09;1.80;99.90
24664;DHT22;12791;50.992;13.788;2023-03-01T10:38:48;1.80;99.90
24664;DHT22;12791;50.992;13.788;2023-03-01T10:41:17;2.00;99.90
24664;DHT22;12791;50.992;13.788;2023-03-01T10:43:46;2.00;99.90
24664;DHT22;12791;50.992;13.788;2023-03-01T10:46:25;2.00;99.90
24664;DHT22;12791;50.992;13.788;2023-03-01T10:49:14;2.00;99.90
24664;DHT22;12791;50.992;13.788;2023-03-01T10:51:44;2.00;99.90
24664;DHT22;12791;50.992;13.788;2023-03-01T10:54:20;2.30;99.90
24664;DHT22;12791;50.992;13.788;2023-03-01T10:56:49;2.30;99.90
24664;DHT22;12791;50.992;13.788;2023-03-01T10:59:22;2.40;99.90
24664;DHT22;12791;50.992;13.788;2023-03-01T11:02:03;2.40;99.60
24664;DHT22;12791;50.992;13.788;2023-03-01T11:04:30;2.70;99.20
24664;DHT22;12791;50.992;13.788;2023-03-01T11:07:01;2.60;97.50
24664;DHT22;12791;50.992;13.788;2023-03-01T11:09:32;2.80;97.60
24664;DHT22;12791;50.992;13.788;2023-03-01T11:12:04;2.90;95.70
24664;DHT22;12791;50.992;13.788;2023-03-01T11:14:35;2.80;94.60
24664;DHT22;12791;50.992;13.788;2023-03-01T11:17:04;3.00;90.70
24664;DHT22;12791;50.992;13.788;2023-03-01T11:19:32;3.00;88.80
24664;DHT22;12791;50.992;13.788;2023-03-01T11:22:03;3.20;85.70
24664;DHT22;12791;50.992;13.788;2023-03-01T11:24:34;3.30;81.30
24664;DHT22;12791;50.992;13.788;2023-03-01T11:27:06;2.90;78.90
24664;DHT22;12791;50.992;13.788;2023-03-01T11:29:37;3.20;77.00
24664;DHT22;12791;50.992;13.788;2023-03-01T11:32:08;3.00;75.10
24664;DHT22;12791;50.992;13.788;2023-03-01T11:34:40;3.60;73.80
24664;DHT22;12791;50.992;13.788;2023-03-01T11:37:21;3.60;72.50
24664;DHT22;12791;50.992;13.788;2023-03-01T11:39:54;3.50;71.80
24664;DHT22;12791;50.992;13.788;2023-03-01T11:42:28;3.60;71.90
24664;DHT22;12791;50.992;13.788;2023-03-01T11:44:59;3.60;67.50
24664;DHT22;12791;50.992;13.788;2023-03-01T11:47:37;3.80;67.70
24664;DHT22;12791;50.992;13.788;2023-03-01T11:50:16;4.00;67.90
24664;DHT22;12791;50.992;13.788;2023-03-01T11:53:06;4.00;66.40
24664;DHT22;12791;50.992;13.788;2023-03-01T11:55:55;4.10;65.80
24664;DHT22;12791;50.992;13.788;2023-03-01T11:58:40;4.20;66.50
24664;DHT22;12791;50.992;13.788;2023-03-01T12:01:20;4.00;62.80
24664;DHT22;12791;50.992;13.788;2023-03-01T12:04:00;4.00;63.40
24664;DHT22;12791;50.992;13.788;2023-03-01T12:06:43;4.10;61.60
24664;DHT22;12791;50.992;13.788;2023-03-01T12:09:32;4.10;62.80
24664;DHT22;12791;50.992;13.788;2023-03-01T12:12:24;4.30;62.60
24664;DHT22;12791;50.992;13.788;2023-03-01T12:15:05;4.10;61.70
24664;DHT22;12791;50.992;13.788;2023-03-01T12:17:55;4.40;62.80
24664;DHT22;12791;50.992;13.788;2023-03-01T12:20:29;4.10;63.00
24664;DHT22;12791;50.992;13.788;2023-03-01T12:23:20;4.20;63.60
24664;DHT22;12791;50.992;13.788;2023-03-01T12:25:55;4.20;64.20
24664;DHT22;12791;50.992;13.788;2023-03-01T12:28:46;4.20;62.80
24664;DHT22;12791;50.992;13.788;2023-03-01T12:34:28;4.40;64.90
24664;DHT22;12791;50.992;13.788;2023-03-01T12:37:14;4.40;63.40
24664;DHT22;12791;50.992;13.788;2023-03-01T12:39:52;4.40;62.10
24664;DHT22;12791;50.992;13.788;2023-03-01T12:42:31;4.50;61.60
24664;DHT22;12791;50.992;13.788;2023-03-01T12:45:18;4.50;62.30
24664;DHT22;12791;50.992;13.788;2023-03-01T12:48:01;4.40;62.30
24664;DHT22;12791;50.992;13.788;2023-03-01T12:50:37;4.40;62.80
24664;DHT22;12791;50.992;13.788;2023-03-01T12:53:07;4.40;62.20
24664;DHT22;12791;50.992;13.788;2023-03-01T12:55:42;4.50;61.00
24664;DHT22;12791;50.992;13.788;2023-03-01T12:58:20;4.50;61.00
24664;DHT22;12791;50.992;13.788;2023-03-01T13:01:01;4.40;59.40
24664;DHT22;12791;50.992;13.788;2023-03-01T13:03:36;4.50;59.60
24664;DHT22;12791;50.992;13.788;2023-03-01T13:06:10;4.50;59.60
24664;DHT22;12791;50.992;13.788;2023-03-01T13:08:39;4.40;58.80
24664;DHT22;12791;50.992;13.788;2023-03-01T13:11:15;4.60;58.90
24664;DHT22;12791;50.992;13.788;2023-03-01T13:13:44;4.40;59.50
24664;DHT22;12791;50.992;13.788;2023-03-01T13:16:21;4.30;58.80
24664;DHT22;12791;50.992;13.788;2023-03-01T13:18:49;4.50;59.00
24664;DHT22;12791;50.992;13.788;2023-03-01T13:21:29;4.50;58.60
24664;DHT22;12791;50.992;13.788;2023-03-01T13:23:56;4.70;58.90
24664;DHT22;12791;50.992;13.788;2023-03-01T13:26:23;4.40;59.50
24664;DHT22;12791;50.992;13.788;2023-03-01T13:28:55;4.60;58.50
24664;DHT22;12791;50.992;13.788;2023-03-01T13:34:39;4.40;57.20
24664;DHT22;12791;50.992;13.788;2023-03-01T13:37:10;4.40;58.20
24664;DHT22;12791;50.992;13.788;2023-03-01T13:39:40;4.70;58.50
24664;DHT22;12791;50.992;13.788;2023-03-01T13:42:32;4.50;58.30
24664;DHT22;12791;50.992;13.788;2023-03-01T13:45:00;4.70;58.10
24664;DHT22;12791;50.992;13.788;2023-03-01T13:47:28;4.60;58.00
24664;DHT22;12791;50.992;13.788;2023-03-01T13:49:56;4.50;58.50
24664;DHT22;12791;50.992;13.788;2023-03-01T13:52:36;4.70;59.10
24664;DHT22;12791;50.992;13.788;2023-03-01T13:55:16;4.90;58.70
24664;DHT22;12791;50.992;13.788;2023-03-01T13:57:45;4.70;58.70
24664;DHT22;12791;50.992;13.788;2023-03-01T14:00:31;5.00;59.50
24664;DHT22;12791;50.992;13.788;2023-03-01T14:03:08;4.50;59.20
24664;DHT22;12791;50.992;13.788;2023-03-01T14:05:35;5.00;60.00
24664;DHT22;12791;50.992;13.788;2023-03-01T14:08:02;4.80;58.20
24664;DHT22;12791;50.992;13.788;2023-03-01T14:10:35;5.00;57.60
24664;DHT22;12791;50.992;13.788;2023-03-01T14:13:17;4.80;56.30
24664;DHT22;12791;50.992;13.788;2023-03-01T14:16:01;4.90;55.30
24664;DHT22;12791;50.992;13.788;2023-03-01T14:18:36;4.90;56.00
24664;DHT22;12791;50.992;13.788;2023-03-01T14:21:07;5.10;56.10
24664;DHT22;12791;50.992;13.788;2023-03-01T14:23:34;4.90;55.50
24664;DHT22;12791;50.992;13.788;2023-03-01T14:26:02;4.90;54.10
24664;DHT22;12791;50.992;13.788;2023-03-01T14:28:31;5.00;53.00
24664;DHT22;12791;50.992;13.788;2023-03-01T14:31:01;5.10;52.70
24664;DHT22;12791;50.992;13.788;2023-03-01T14:33:29;5.20;53.20
24664;DHT22;12791;50.992;13.788;2023-03-01T14:35:59;4.90;52.80
24664;DHT22;12791;50.992;13.788;2023-03-01T14:38:34;4.80;51.50
24664;DHT22;12791;50.992;13.788;2023-03-01T14:41:03;5.20;52.40
24664;DHT22;12791;50.992;13.788;2023-03-01T14:43:31;5.00;52.60
24664;DHT22;12791;50.992;13.788;2023-03-01T14:46:00;4.90;52.00
24664;DHT22;12791;50.992;13.788;2023-03-01T14:48:28;5.00;52.80
24664;DHT22;12791;50.992;13.788;2023-03-01T14:50:55;5.00;53.60
24664;DHT22;12791;50.992;13.788;2023-03-01T14:53:24;5.00;53.40
24664;DHT22;12791;50.992;13.788;2023-03-01T14:55:53;5.00;53.70
24664;DHT22;12791;50.992;13.788;2023-03-01T14:58:22;5.30;54.00
24664;DHT22;12791;50.992;13.788;2023-03-01T15:00:52;5.20;53.80
24664;DHT22;12791;50.992;13.788;2023-03-01T15:03:26;4.70;53.90
24664;DHT22;12791;50.992;13.788;2023-03-01T15:05:54;5.10;52.90
24664;DHT22;12791;50.992;13.788;2023-03-01T15:08:23;5.00;53.30
24664;DHT22;12791;50.992;13.788;2023-03-01T15:10:59;5.00;54.10
24664;DHT22;12791;50.992;13.788;2023-03-01T15:13:30;5.10;54.90
24664;DHT22;12791;50.992;13.788;2023-03-01T15:16:04;4.90;54.70
24664;DHT22;12791;50.992;13.788;2023-03-01T15:18:33;5.00;54.80
24664;DHT22;12791;50.992;13.788;2023-03-01T15:21:09;5.10;54.80
24664;DHT22;12791;50.992;13.788;2023-03-01T15:23:37;5.20;54.70
24664;DHT22;12791;50.992;13.788;2023-03-01T15:26:05;5.10;54.90
24664;DHT22;12791;50.992;13.788;2023-03-01T15:28:34;5.10;54.80
24664;DHT22;12791;50.992;13.788;2023-03-01T15:31:11;5.20;54.70
24664;DHT22;12791;50.992;13.788;2023-03-01T15:33:41;5.20;55.00
24664;DHT22;12791;50.992;13.788;2023-03-01T15:36:33;5.30;54.70
24664;DHT22;12791;50.992;13.788;2023-03-01T15:39:03;5.30;55.10
24664;DHT22;12791;50.992;13.788;2023-03-01T15:41:32;5.30;55.70
24664;DHT22;12791;50.992;13.788;2023-03-01T15:44:15;5.20;55.10
24664;DHT22;12791;50.992;13.788;2023-03-01T15:46:46;5.10;55.20
24664;DHT22;12791;50.992;13.788;2023-03-01T15:49:26;5.10;55.60